Terminal Aerodrome Forecast
Issued by NWS

Home | Current Version | Previous Version | Text Only | Print | Product List | Glossary On
Versions: 1 2 3 4 5 6 7 8 9 10 11 12 13 14 15 16 17 18 19 20 21 22 23 24 25
000
FTUS41 KPBZ 281100
TAFDUJ
TAF
KDUJ 281120Z 2812/2912 28010KT P6SM FEW015 SCT022 OVC060
      TEMPO 2812/2815 5SM -SHSN BKN025
     FM281800 25007KT P6SM BKN035
     FM290000 22005KT P6SM BKN050=

USA.gov is the U.S. government's official web portal to all federal, state and local government web resources and services.